LFMK/CCF METAR and TAF weather

Enter ICAO airport designator
Station Type Date Time Source
LFMK METAR 2019/12/08 11:30 UTC NOAA

LFMK 081130Z AUTO VRB03KT 9999 OVC033 12/08 Q1021


Station Type Date Time Source
LFMK Decoded METAR 2019/12/08 11:30 UTC NOAA

Carcassonne, France (LFMK) 43-13N 002-19E 130M
Dec 08, 2019 - 06:30 AM EST / 2019.12.08 1130 UTC
Wind: Variable at 3 MPH (3 KT):0
Visibility: greater than 7 mile(s):0
Sky conditions: overcast
Temperature: 53 F (12 C)
Dew Point: 46 F (8 C)
Relative Humidity: 76%
Pressure (altimeter): 30.15 in. Hg (1021 hPa)
ob: LFMK 081130Z AUTO VRB03KT 9999 OVC033 12/08 Q1021
cycle: 11

Station Type Date Time Source
LFMK TAF 2019/12/08 06:07 UTC NOAA

TAF LFMK 080601Z 0806/0903 CNL

Example: see airport list